sensor_id;sensor_type;location;lat;lon;timestamp;P1;durP1;ratioP1;P2;durP2;ratioP2
8887;SDS011;4480;52.370;9.748;2022-10-16T00:01:34;1.13;;;1.00;;
8887;SDS011;4480;52.370;9.748;2022-10-16T00:04:02;1.10;;;1.00;;
8887;SDS011;4480;52.370;9.748;2022-10-16T00:06:29;3.33;;;1.20;;
8887;SDS011;4480;52.370;9.748;2022-10-16T00:08:58;1.10;;;0.80;;
8887;SDS011;4480;52.370;9.748;2022-10-16T00:11:25;2.70;;;1.10;;
8887;SDS011;4480;52.370;9.748;2022-10-16T00:13:55;1.57;;;0.93;;
8887;SDS011;4480;52.370;9.748;2022-10-16T00:16:24;1.17;;;0.97;;
8887;SDS011;4480;52.370;9.748;2022-10-16T00:18:51;1.57;;;0.90;;
8887;SDS011;4480;52.370;9.748;2022-10-16T00:21:19;2.93;;;1.07;;
8887;SDS011;4480;52.370;9.748;2022-10-16T00:23:49;2.80;;;1.10;;
8887;SDS011;4480;52.370;9.748;2022-10-16T00:26:18;2.57;;;1.00;;
8887;SDS011;4480;52.370;9.748;2022-10-16T00:28:46;2.40;;;1.07;;
8887;SDS011;4480;52.370;9.748;2022-10-16T00:31:13;1.43;;;0.97;;
8887;SDS011;4480;52.370;9.748;2022-10-16T00:33:40;1.80;;;1.07;;
8887;SDS011;4480;52.370;9.748;2022-10-16T00:36:09;5.03;;;1.27;;
8887;SDS011;4480;52.370;9.748;2022-10-16T00:38:37;1.90;;;1.13;;
8887;SDS011;4480;52.370;9.748;2022-10-16T00:41:04;0.90;;;0.80;;
8887;SDS011;4480;52.370;9.748;2022-10-16T00:43:34;1.73;;;0.70;;
8887;SDS011;4480;52.370;9.748;2022-10-16T00:46:03;2.20;;;0.83;;
8887;SDS011;4480;52.370;9.748;2022-10-16T00:48:31;1.30;;;0.90;;
8887;SDS011;4480;52.370;9.748;2022-10-16T00:50:58;2.07;;;0.87;;
8887;SDS011;4480;52.370;9.748;2022-10-16T00:53:25;1.20;;;0.70;;
8887;SDS011;4480;52.370;9.748;2022-10-16T00:55:53;2.60;;;0.80;;
8887;SDS011;4480;52.370;9.748;2022-10-16T00:58:20;1.03;;;0.90;;
8887;SDS011;4480;52.370;9.748;2022-10-16T01:00:48;1.50;;;1.00;;
8887;SDS011;4480;52.370;9.748;2022-10-16T01:03:22;1.33;;;1.10;;
8887;SDS011;4480;52.370;9.748;2022-10-16T01:05:53;1.37;;;1.03;;
8887;SDS011;4480;52.370;9.748;2022-10-16T01:08:34;1.40;;;1.23;;
8887;SDS011;4480;52.370;9.748;2022-10-16T01:11:11;1.70;;;1.37;;
8887;SDS011;4480;52.370;9.748;2022-10-16T01:13:46;8.13;;;1.53;;
8887;SDS011;4480;52.370;9.748;2022-10-16T01:16:22;3.40;;;1.53;;
8887;SDS011;4480;52.370;9.748;2022-10-16T01:18:57;1.17;;;1.07;;
8887;SDS011;4480;52.370;9.748;2022-10-16T01:21:31;1.53;;;1.17;;
8887;SDS011;4480;52.370;9.748;2022-10-16T01:24:02;2.00;;;1.67;;
8887;SDS011;4480;52.370;9.748;2022-10-16T01:26:38;2.90;;;1.70;;
8887;SDS011;4480;52.370;9.748;2022-10-16T01:29:20;3.00;;;1.40;;
8887;SDS011;4480;52.370;9.748;2022-10-16T01:31:50;2.17;;;1.33;;
8887;SDS011;4480;52.370;9.748;2022-10-16T01:34:27;1.77;;;1.37;;
8887;SDS011;4480;52.370;9.748;2022-10-16T01:37:02;5.40;;;2.00;;
8887;SDS011;4480;52.370;9.748;2022-10-16T01:39:34;1.93;;;1.57;;
8887;SDS011;4480;52.370;9.748;2022-10-16T01:42:08;3.43;;;1.50;;
8887;SDS011;4480;52.370;9.748;2022-10-16T01:44:39;1.60;;;1.50;;
8887;SDS011;4480;52.370;9.748;2022-10-16T01:47:08;3.67;;;1.60;;
8887;SDS011;4480;52.370;9.748;2022-10-16T01:49:36;5.67;;;1.50;;
8887;SDS011;4480;52.370;9.748;2022-10-16T01:52:10;5.20;;;1.60;;
8887;SDS011;4480;52.370;9.748;2022-10-16T01:54:41;3.10;;;1.67;;
8887;SDS011;4480;52.370;9.748;2022-10-16T01:57:09;2.23;;;1.70;;
8887;SDS011;4480;52.370;9.748;2022-10-16T01:59:40;4.77;;;1.87;;
8887;SDS011;4480;52.370;9.748;2022-10-16T02:02:10;1.60;;;1.50;;
8887;SDS011;4480;52.370;9.748;2022-10-16T02:04:40;3.10;;;1.73;;
8887;SDS011;4480;52.370;9.748;2022-10-16T02:07:11;3.03;;;1.57;;
8887;SDS011;4480;52.370;9.748;2022-10-16T02:09:38;2.40;;;1.77;;
8887;SDS011;4480;52.370;9.748;2022-10-16T02:12:08;2.40;;;1.87;;
8887;SDS011;4480;52.370;9.748;2022-10-16T02:14:41;2.10;;;1.90;;
8887;SDS011;4480;52.370;9.748;2022-10-16T02:17:11;2.20;;;1.40;;
8887;SDS011;4480;52.370;9.748;2022-10-16T02:19:39;5.33;;;1.60;;
8887;SDS011;4480;52.370;9.748;2022-10-16T02:22:07;2.93;;;1.70;;
8887;SDS011;4480;52.370;9.748;2022-10-16T02:24:38;3.40;;;1.70;;
8887;SDS011;4480;52.370;9.748;2022-10-16T02:27:10;2.37;;;1.23;;
8887;SDS011;4480;52.370;9.748;2022-10-16T02:29:45;2.90;;;1.53;;
8887;SDS011;4480;52.370;9.748;2022-10-16T02:32:15;3.70;;;1.70;;
8887;SDS011;4480;52.370;9.748;2022-10-16T02:34:45;1.43;;;1.23;;
8887;SDS011;4480;52.370;9.748;2022-10-16T02:37:14;1.90;;;1.20;;
8887;SDS011;4480;52.370;9.748;2022-10-16T02:39:42;2.13;;;1.60;;
8887;SDS011;4480;52.370;9.748;2022-10-16T02:42:09;4.00;;;2.00;;
8887;SDS011;4480;52.370;9.748;2022-10-16T02:44:36;3.60;;;1.73;;
8887;SDS011;4480;52.370;9.748;2022-10-16T02:47:04;4.77;;;1.70;;
8887;SDS011;4480;52.370;9.748;2022-10-16T02:49:31;3.30;;;2.00;;
8887;SDS011;4480;52.370;9.748;2022-10-16T02:51:58;2.20;;;2.00;;
8887;SDS011;4480;52.370;9.748;2022-10-16T02:54:25;3.23;;;2.40;;
8887;SDS011;4480;52.370;9.748;2022-10-16T02:56:52;3.33;;;2.20;;
8887;SDS011;4480;52.370;9.748;2022-10-16T02:59:18;4.13;;;2.00;;
8887;SDS011;4480;52.370;9.748;2022-10-16T03:01:45;2.27;;;2.00;;
8887;SDS011;4480;52.370;9.748;2022-10-16T03:04:13;2.27;;;2.07;;
8887;SDS011;4480;52.370;9.748;2022-10-16T03:06:40;2.77;;;1.87;;
8887;SDS011;4480;52.370;9.748;2022-10-16T03:09:07;2.10;;;1.87;;
8887;SDS011;4480;52.370;9.748;2022-10-16T03:11:33;3.70;;;2.13;;
8887;SDS011;4480;52.370;9.748;2022-10-16T03:14:00;5.73;;;1.97;;
8887;SDS011;4480;52.370;9.748;2022-10-16T03:16:27;3.93;;;2.40;;
8887;SDS011;4480;52.370;9.748;2022-10-16T03:18:54;3.90;;;2.37;;
8887;SDS011;4480;52.370;9.748;2022-10-16T03:21:22;2.80;;;2.30;;
8887;SDS011;4480;52.370;9.748;2022-10-16T03:23:49;4.10;;;2.30;;
8887;SDS011;4480;52.370;9.748;2022-10-16T03:26:15;4.37;;;2.40;;
8887;SDS011;4480;52.370;9.748;2022-10-16T03:28:42;3.87;;;2.17;;
8887;SDS011;4480;52.370;9.748;2022-10-16T03:31:09;2.17;;;1.97;;
8887;SDS011;4480;52.370;9.748;2022-10-16T03:33:35;3.97;;;2.20;;
8887;SDS011;4480;52.370;9.748;2022-10-16T03:36:02;2.70;;;2.40;;
8887;SDS011;4480;52.370;9.748;2022-10-16T03:38:30;3.67;;;2.73;;
8887;SDS011;4480;52.370;9.748;2022-10-16T03:40:57;7.60;;;2.83;;
8887;SDS011;4480;52.370;9.748;2022-10-16T03:43:24;5.50;;;2.53;;
8887;SDS011;4480;52.370;9.748;2022-10-16T03:45:51;4.90;;;2.50;;
8887;SDS011;4480;52.370;9.748;2022-10-16T03:48:18;4.50;;;2.17;;
8887;SDS011;4480;52.370;9.748;2022-10-16T03:50:45;2.90;;;2.60;;
8887;SDS011;4480;52.370;9.748;2022-10-16T03:53:13;5.30;;;2.77;;
8887;SDS011;4480;52.370;9.748;2022-10-16T03:55:42;2.67;;;2.07;;
8887;SDS011;4480;52.370;9.748;2022-10-16T03:58:09;3.50;;;2.40;;
8887;SDS011;4480;52.370;9.748;2022-10-16T04:00:39;2.83;;;2.40;;
8887;SDS011;4480;52.370;9.748;2022-10-16T04:03:06;3.03;;;2.47;;
8887;SDS011;4480;52.370;9.748;2022-10-16T04:05:33;4.87;;;2.93;;
8887;SDS011;4480;52.370;9.748;2022-10-16T04:10:21;3.67;;;2.47;;
8887;SDS011;4480;52.370;9.748;2022-10-16T04:12:47;5.97;;;2.60;;
8887;SDS011;4480;52.370;9.748;2022-10-16T04:15:14;3.50;;;2.70;;
8887;SDS011;4480;52.370;9.748;2022-10-16T04:17:41;5.83;;;2.77;;
8887;SDS011;4480;52.370;9.748;2022-10-16T04:20:08;4.83;;;2.70;;
8887;SDS011;4480;52.370;9.748;2022-10-16T04:22:35;3.73;;;2.90;;
8887;SDS011;4480;52.370;9.748;2022-10-16T04:25:02;3.97;;;2.80;;
8887;SDS011;4480;52.370;9.748;2022-10-16T04:27:30;4.77;;;2.60;;
8887;SDS011;4480;52.370;9.748;2022-10-16T04:29:57;4.17;;;2.67;;
8887;SDS011;4480;52.370;9.748;2022-10-16T04:32:24;4.60;;;2.23;;
8887;SDS011;4480;52.370;9.748;2022-10-16T04:34:52;3.40;;;3.10;;
8887;SDS011;4480;52.370;9.748;2022-10-16T04:37:22;3.07;;;2.77;;
8887;SDS011;4480;52.370;9.748;2022-10-16T04:39:49;3.50;;;2.90;;
8887;SDS011;4480;52.370;9.748;2022-10-16T04:42:16;2.87;;;2.57;;
8887;SDS011;4480;52.370;9.748;2022-10-16T04:44:45;3.57;;;3.00;;
8887;SDS011;4480;52.370;9.748;2022-10-16T04:47:12;3.57;;;2.63;;
8887;SDS011;4480;52.370;9.748;2022-10-16T04:49:39;3.93;;;3.27;;
8887;SDS011;4480;52.370;9.748;2022-10-16T04:52:07;3.37;;;2.43;;
8887;SDS011;4480;52.370;9.748;2022-10-16T04:54:34;4.73;;;2.93;;
8887;SDS011;4480;52.370;9.748;2022-10-16T04:57:01;3.50;;;3.00;;
8887;SDS011;4480;52.370;9.748;2022-10-16T04:59:29;2.87;;;2.40;;
8887;SDS011;4480;52.370;9.748;2022-10-16T05:01:58;8.70;;;3.37;;
8887;SDS011;4480;52.370;9.748;2022-10-16T05:04:25;8.17;;;3.60;;
8887;SDS011;4480;52.370;9.748;2022-10-16T05:06:51;4.77;;;3.33;;
8887;SDS011;4480;52.370;9.748;2022-10-16T05:09:18;4.37;;;3.00;;
8887;SDS011;4480;52.370;9.748;2022-10-16T05:11:45;3.10;;;2.77;;
8887;SDS011;4480;52.370;9.748;2022-10-16T05:14:12;4.00;;;3.00;;
8887;SDS011;4480;52.370;9.748;2022-10-16T05:16:39;3.97;;;3.00;;
8887;SDS011;4480;52.370;9.748;2022-10-16T05:19:08;3.67;;;2.73;;
8887;SDS011;4480;52.370;9.748;2022-10-16T05:21:35;3.00;;;2.53;;
8887;SDS011;4480;52.370;9.748;2022-10-16T05:24:02;4.00;;;3.40;;
8887;SDS011;4480;52.370;9.748;2022-10-16T05:26:29;3.43;;;2.93;;
8887;SDS011;4480;52.370;9.748;2022-10-16T05:28:55;3.47;;;3.13;;
8887;SDS011;4480;52.370;9.748;2022-10-16T05:31:22;4.97;;;3.43;;
8887;SDS011;4480;52.370;9.748;2022-10-16T05:33:49;4.40;;;3.10;;
8887;SDS011;4480;52.370;9.748;2022-10-16T05:36:17;3.40;;;2.87;;
8887;SDS011;4480;52.370;9.748;2022-10-16T05:38:45;3.80;;;3.27;;
8887;SDS011;4480;52.370;9.748;2022-10-16T05:41:12;4.43;;;2.90;;
8887;SDS011;4480;52.370;9.748;2022-10-16T05:43:38;3.77;;;3.10;;
8887;SDS011;4480;52.370;9.748;2022-10-16T05:46:05;3.30;;;2.87;;
8887;SDS011;4480;52.370;9.748;2022-10-16T05:48:32;4.10;;;3.27;;
8887;SDS011;4480;52.370;9.748;2022-10-16T05:51:00;5.10;;;2.70;;
8887;SDS011;4480;52.370;9.748;2022-10-16T05:53:30;4.30;;;3.10;;
8887;SDS011;4480;52.370;9.748;2022-10-16T05:55:58;4.30;;;3.90;;
8887;SDS011;4480;52.370;9.748;2022-10-16T05:58:28;6.97;;;3.97;;
8887;SDS011;4480;52.370;9.748;2022-10-16T06:00:57;3.90;;;3.20;;
8887;SDS011;4480;52.370;9.748;2022-10-16T06:03:25;6.30;;;3.67;;
8887;SDS011;4480;52.370;9.748;2022-10-16T06:05:52;4.20;;;3.37;;
8887;SDS011;4480;52.370;9.748;2022-10-16T06:08:20;4.10;;;3.33;;
8887;SDS011;4480;52.370;9.748;2022-10-16T06:10:57;3.83;;;3.00;;
8887;SDS011;4480;52.370;9.748;2022-10-16T06:13:26;3.53;;;3.23;;
8887;SDS011;4480;52.370;9.748;2022-10-16T06:15:56;3.47;;;2.87;;
8887;SDS011;4480;52.370;9.748;2022-10-16T06:18:23;3.73;;;2.80;;
8887;SDS011;4480;52.370;9.748;2022-10-16T06:20:50;4.83;;;2.70;;
8887;SDS011;4480;52.370;9.748;2022-10-16T06:23:17;3.13;;;2.83;;
8887;SDS011;4480;52.370;9.748;2022-10-16T06:25:44;3.57;;;2.60;;
8887;SDS011;4480;52.370;9.748;2022-10-16T06:28:12;3.07;;;2.23;;
8887;SDS011;4480;52.370;9.748;2022-10-16T06:30:40;6.60;;;2.20;;
8887;SDS011;4480;52.370;9.748;2022-10-16T06:33:08;2.67;;;2.47;;
8887;SDS011;4480;52.370;9.748;2022-10-16T06:35:35;3.63;;;2.43;;
8887;SDS011;4480;52.370;9.748;2022-10-16T06:38:02;3.10;;;2.17;;
8887;SDS011;4480;52.370;9.748;2022-10-16T06:40:29;3.73;;;2.33;;
8887;SDS011;4480;52.370;9.748;2022-10-16T06:42:56;2.40;;;2.20;;
8887;SDS011;4480;52.370;9.748;2022-10-16T06:45:24;4.53;;;2.10;;
8887;SDS011;4480;52.370;9.748;2022-10-16T06:47:51;3.30;;;2.70;;
8887;SDS011;4480;52.370;9.748;2022-10-16T06:50:18;3.30;;;2.30;;
8887;SDS011;4480;52.370;9.748;2022-10-16T06:52:45;4.70;;;2.67;;
8887;SDS011;4480;52.370;9.748;2022-10-16T06:55:12;4.33;;;2.70;;
8887;SDS011;4480;52.370;9.748;2022-10-16T06:57:39;2.40;;;2.17;;
8887;SDS011;4480;52.370;9.748;2022-10-16T07:00:07;2.43;;;2.23;;
8887;SDS011;4480;52.370;9.748;2022-10-16T07:02:35;3.60;;;2.60;;
8887;SDS011;4480;52.370;9.748;2022-10-16T07:05:03;2.90;;;2.20;;
8887;SDS011;4480;52.370;9.748;2022-10-16T07:07:30;2.43;;;2.07;;
8887;SDS011;4480;52.370;9.748;2022-10-16T07:09:57;2.30;;;2.10;;
8887;SDS011;4480;52.370;9.748;2022-10-16T07:12:24;4.50;;;3.30;;
8887;SDS011;4480;52.370;9.748;2022-10-16T07:14:51;3.43;;;2.07;;
8887;SDS011;4480;52.370;9.748;2022-10-16T07:17:19;3.83;;;2.30;;
8887;SDS011;4480;52.370;9.748;2022-10-16T07:19:48;3.63;;;2.33;;
8887;SDS011;4480;52.370;9.748;2022-10-16T07:22:17;2.27;;;2.07;;
8887;SDS011;4480;52.370;9.748;2022-10-16T07:24:44;2.57;;;1.67;;
8887;SDS011;4480;52.370;9.748;2022-10-16T07:27:11;2.20;;;1.93;;
8887;SDS011;4480;52.370;9.748;2022-10-16T07:29:38;1.70;;;1.60;;
8887;SDS011;4480;52.370;9.748;2022-10-16T07:32:05;2.53;;;2.33;;
8887;SDS011;4480;52.370;9.748;2022-10-16T07:34:32;2.77;;;2.10;;
8887;SDS011;4480;52.370;9.748;2022-10-16T07:37:00;3.87;;;1.80;;
8887;SDS011;4480;52.370;9.748;2022-10-16T07:39:27;1.90;;;1.70;;
8887;SDS011;4480;52.370;9.748;2022-10-16T07:41:54;3.50;;;2.40;;
8887;SDS011;4480;52.370;9.748;2022-10-16T07:44:21;2.80;;;1.80;;
8887;SDS011;4480;52.370;9.748;2022-10-16T07:46:48;2.03;;;1.83;;
8887;SDS011;4480;52.370;9.748;2022-10-16T07:49:14;1.50;;;1.23;;
8887;SDS011;4480;52.370;9.748;2022-10-16T07:51:41;2.27;;;1.33;;
8887;SDS011;4480;52.370;9.748;2022-10-16T07:54:10;1.93;;;1.50;;
8887;SDS011;4480;52.370;9.748;2022-10-16T07:56:40;2.60;;;1.70;;
8887;SDS011;4480;52.370;9.748;2022-10-16T07:59:07;2.40;;;1.43;;
8887;SDS011;4480;52.370;9.748;2022-10-16T08:01:33;1.80;;;1.53;;
8887;SDS011;4480;52.370;9.748;2022-10-16T08:04:01;2.23;;;1.33;;
8887;SDS011;4480;52.370;9.748;2022-10-16T08:06:27;1.60;;;1.30;;
8887;SDS011;4480;52.370;9.748;2022-10-16T08:08:54;1.83;;;1.63;;
8887;SDS011;4480;52.370;9.748;2022-10-16T08:11:23;3.60;;;1.60;;
8887;SDS011;4480;52.370;9.748;2022-10-16T08:13:49;4.23;;;1.63;;
8887;SDS011;4480;52.370;9.748;2022-10-16T08:16:16;1.77;;;1.67;;
8887;SDS011;4480;52.370;9.748;2022-10-16T08:18:43;2.60;;;1.90;;
8887;SDS011;4480;52.370;9.748;2022-10-16T08:21:12;2.70;;;2.07;;
8887;SDS011;4480;52.370;9.748;2022-10-16T08:23:40;2.23;;;1.40;;
8887;SDS011;4480;52.370;9.748;2022-10-16T08:26:08;2.03;;;1.73;;
8887;SDS011;4480;52.370;9.748;2022-10-16T08:28:36;2.40;;;1.43;;
8887;SDS011;4480;52.370;9.748;2022-10-16T08:31:07;1.40;;;1.30;;
8887;SDS011;4480;52.370;9.748;2022-10-16T08:33:35;2.43;;;1.53;;
8887;SDS011;4480;52.370;9.748;2022-10-16T08:36:03;1.60;;;1.37;;
8887;SDS011;4480;52.370;9.748;2022-10-16T08:38:31;1.40;;;1.27;;
8887;SDS011;4480;52.370;9.748;2022-10-16T08:41:01;1.90;;;1.30;;
8887;SDS011;4480;52.370;9.748;2022-10-16T08:43:55;1.33;;;1.10;;
8887;SDS011;4480;52.370;9.748;2022-10-16T08:46:36;4.40;;;1.70;;
8887;SDS011;4480;52.370;9.748;2022-10-16T08:49:12;2.63;;;1.00;;
8887;SDS011;4480;52.370;9.748;2022-10-16T08:51:40;1.77;;;1.20;;
8887;SDS011;4480;52.370;9.748;2022-10-16T08:54:12;1.63;;;1.10;;
8887;SDS011;4480;52.370;9.748;2022-10-16T08:56:47;1.30;;;1.10;;
8887;SDS011;4480;52.370;9.748;2022-10-16T08:59:16;2.23;;;0.90;;
8887;SDS011;4480;52.370;9.748;2022-10-16T09:01:45;3.33;;;1.30;;
8887;SDS011;4480;52.370;9.748;2022-10-16T09:04:23;1.17;;;0.90;;
8887;SDS011;4480;52.370;9.748;2022-10-16T09:07:15;3.30;;;1.03;;
8887;SDS011;4480;52.370;9.748;2022-10-16T09:09:52;3.77;;;1.00;;
8887;SDS011;4480;52.370;9.748;2022-10-16T09:12:28;1.43;;;1.13;;
8887;SDS011;4480;52.370;9.748;2022-10-16T09:15:10;1.50;;;0.90;;
8887;SDS011;4480;52.370;9.748;2022-10-16T09:17:45;1.30;;;1.20;;
8887;SDS011;4480;52.370;9.748;2022-10-16T09:23:13;2.50;;;1.10;;
8887;SDS011;4480;52.370;9.748;2022-10-16T09:25:43;1.43;;;1.20;;
8887;SDS011;4480;52.370;9.748;2022-10-16T09:28:12;1.30;;;1.20;;
8887;SDS011;4480;52.370;9.748;2022-10-16T09:30:40;2.53;;;1.30;;
8887;SDS011;4480;52.370;9.748;2022-10-16T09:33:08;1.17;;;1.07;;
8887;SDS011;4480;52.370;9.748;2022-10-16T09:35:36;2.60;;;1.10;;
8887;SDS011;4480;52.370;9.748;2022-10-16T09:38:05;1.10;;;0.80;;
8887;SDS011;4480;52.370;9.748;2022-10-16T09:40:34;1.43;;;1.17;;
8887;SDS011;4480;52.370;9.748;2022-10-16T09:43:03;2.63;;;1.30;;
8887;SDS011;4480;52.370;9.748;2022-10-16T09:45:43;1.17;;;0.90;;
8887;SDS011;4480;52.370;9.748;2022-10-16T09:48:20;1.73;;;1.10;;
8887;SDS011;4480;52.370;9.748;2022-10-16T09:50:55;1.60;;;0.90;;
8887;SDS011;4480;52.370;9.748;2022-10-16T09:53:22;3.60;;;0.83;;
8887;SDS011;4480;52.370;9.748;2022-10-16T09:55:49;1.40;;;1.00;;
8887;SDS011;4480;52.370;9.748;2022-10-16T09:58:17;3.73;;;1.23;;
8887;SDS011;4480;52.370;9.748;2022-10-16T10:00:50;2.87;;;1.10;;
8887;SDS011;4480;52.370;9.748;2022-10-16T10:03:30;3.30;;;1.10;;
8887;SDS011;4480;52.370;9.748;2022-10-16T10:06:03;4.37;;;1.30;;
8887;SDS011;4480;52.370;9.748;2022-10-16T10:08:40;2.20;;;1.20;;
8887;SDS011;4480;52.370;9.748;2022-10-16T10:11:07;2.90;;;0.97;;
8887;SDS011;4480;52.370;9.748;2022-10-16T10:13:33;1.60;;;1.13;;
8887;SDS011;4480;52.370;9.748;2022-10-16T10:16:01;1.77;;;1.10;;
8887;SDS011;4480;52.370;9.748;2022-10-16T10:18:28;1.63;;;1.20;;
8887;SDS011;4480;52.370;9.748;2022-10-16T10:20:57;2.53;;;1.00;;
8887;SDS011;4480;52.370;9.748;2022-10-16T10:23:25;2.70;;;1.60;;
8887;SDS011;4480;52.370;9.748;2022-10-16T10:25:55;2.03;;;1.17;;
8887;SDS011;4480;52.370;9.748;2022-10-16T10:28:39;1.93;;;1.10;;
8887;SDS011;4480;52.370;9.748;2022-10-16T10:31:17;1.53;;;1.20;;
8887;SDS011;4480;52.370;9.748;2022-10-16T10:33:50;4.40;;;0.90;;
8887;SDS011;4480;52.370;9.748;2022-10-16T10:36:27;1.53;;;1.00;;
8887;SDS011;4480;52.370;9.748;2022-10-16T10:39:07;1.17;;;0.97;;
8887;SDS011;4480;52.370;9.748;2022-10-16T10:44:39;4.33;;;0.90;;
8887;SDS011;4480;52.370;9.748;2022-10-16T10:47:22;2.03;;;1.23;;
8887;SDS011;4480;52.370;9.748;2022-10-16T10:49:57;2.73;;;1.03;;
8887;SDS011;4480;52.370;9.748;2022-10-16T10:52:38;1.73;;;1.00;;
8887;SDS011;4480;52.370;9.748;2022-10-16T10:55:20;2.10;;;1.40;;
8887;SDS011;4480;52.370;9.748;2022-10-16T10:58:01;3.57;;;1.30;;
8887;SDS011;4480;52.370;9.748;2022-10-16T11:00:47;2.87;;;1.30;;
8887;SDS011;4480;52.370;9.748;2022-10-16T11:03:27;1.47;;;0.80;;
8887;SDS011;4480;52.370;9.748;2022-10-16T11:06:06;1.73;;;0.73;;
8887;SDS011;4480;52.370;9.748;2022-10-16T11:08:37;2.60;;;1.20;;
8887;SDS011;4480;52.370;9.748;2022-10-16T11:11:08;1.73;;;1.60;;
8887;SDS011;4480;52.370;9.748;2022-10-16T11:13:42;3.53;;;1.27;;
8887;SDS011;4480;52.370;9.748;2022-10-16T11:16:18;2.60;;;1.27;;
8887;SDS011;4480;52.370;9.748;2022-10-16T11:18:52;6.60;;;1.60;;
8887;SDS011;4480;52.370;9.748;2022-10-16T11:21:24;1.43;;;1.03;;
8887;SDS011;4480;52.370;9.748;2022-10-16T11:23:56;1.47;;;0.90;;
8887;SDS011;4480;52.370;9.748;2022-10-16T11:26:28;1.40;;;1.00;;
8887;SDS011;4480;52.370;9.748;2022-10-16T11:29:00;2.17;;;0.90;;
8887;SDS011;4480;52.370;9.748;2022-10-16T11:31:32;1.30;;;0.90;;
8887;SDS011;4480;52.370;9.748;2022-10-16T11:34:06;2.73;;;1.10;;
8887;SDS011;4480;52.370;9.748;2022-10-16T11:36:42;1.30;;;0.80;;
8887;SDS011;4480;52.370;9.748;2022-10-16T11:39:17;1.77;;;0.80;;
8887;SDS011;4480;52.370;9.748;2022-10-16T11:41:47;2.60;;;1.07;;
8887;SDS011;4480;52.370;9.748;2022-10-16T11:44:20;2.67;;;1.00;;
8887;SDS011;4480;52.370;9.748;2022-10-16T11:47:01;2.00;;;1.10;;
8887;SDS011;4480;52.370;9.748;2022-10-16T11:49:39;1.90;;;0.80;;
8887;SDS011;4480;52.370;9.748;2022-10-16T11:52:10;3.70;;;1.27;;
8887;SDS011;4480;52.370;9.748;2022-10-16T11:54:44;2.70;;;1.37;;
8887;SDS011;4480;52.370;9.748;2022-10-16T11:57:16;1.60;;;0.93;;
8887;SDS011;4480;52.370;9.748;2022-10-16T11:59:47;1.80;;;0.90;;
8887;SDS011;4480;52.370;9.748;2022-10-16T12:02:26;1.03;;;0.90;;
8887;SDS011;4480;52.370;9.748;2022-10-16T12:05:05;1.40;;;0.80;;
8887;SDS011;4480;52.370;9.748;2022-10-16T12:07:41;1.17;;;0.63;;
8887;SDS011;4480;52.370;9.748;2022-10-16T12:10:18;1.53;;;0.70;;
8887;SDS011;4480;52.370;9.748;2022-10-16T12:12:47;1.40;;;0.90;;
8887;SDS011;4480;52.370;9.748;2022-10-16T12:15:21;2.30;;;1.00;;
8887;SDS011;4480;52.370;9.748;2022-10-16T12:17:49;1.50;;;0.83;;
8887;SDS011;4480;52.370;9.748;2022-10-16T12:20:25;2.77;;;0.90;;
8887;SDS011;4480;52.370;9.748;2022-10-16T12:22:56;2.30;;;0.90;;
8887;SDS011;4480;52.370;9.748;2022-10-16T12:25:25;1.70;;;0.70;;
8887;SDS011;4480;52.370;9.748;2022-10-16T12:27:55;1.37;;;0.83;;
8887;SDS011;4480;52.370;9.748;2022-10-16T12:30:24;1.87;;;0.90;;
8887;SDS011;4480;52.370;9.748;2022-10-16T12:32:53;3.83;;;1.10;;
8887;SDS011;4480;52.370;9.748;2022-10-16T12:35:21;0.90;;;0.53;;
8887;SDS011;4480;52.370;9.748;2022-10-16T12:37:52;1.20;;;0.70;;
8887;SDS011;4480;52.370;9.748;2022-10-16T12:40:26;2.60;;;0.70;;
8887;SDS011;4480;52.370;9.748;2022-10-16T12:42:55;1.10;;;0.80;;
8887;SDS011;4480;52.370;9.748;2022-10-16T12:45:27;2.30;;;1.90;;
8887;SDS011;4480;52.370;9.748;2022-10-16T12:47:56;2.10;;;0.70;;
8887;SDS011;4480;52.370;9.748;2022-10-16T12:50:32;4.93;;;0.60;;
8887;SDS011;4480;52.370;9.748;2022-10-16T12:53:01;1.67;;;0.80;;
8887;SDS011;4480;52.370;9.748;2022-10-16T12:55:32;2.40;;;0.90;;
8887;SDS011;4480;52.370;9.748;2022-10-16T12:58:11;2.80;;;1.00;;
8887;SDS011;4480;52.370;9.748;2022-10-16T13:00:48;1.07;;;0.87;;
8887;SDS011;4480;52.370;9.748;2022-10-16T13:03:29;1.87;;;0.80;;
8887;SDS011;4480;52.370;9.748;2022-10-16T13:06:11;1.30;;;0.70;;
8887;SDS011;4480;52.370;9.748;2022-10-16T13:08:50;2.43;;;0.70;;
8887;SDS011;4480;52.370;9.748;2022-10-16T13:11:35;0.80;;;0.60;;
8887;SDS011;4480;52.370;9.748;2022-10-16T13:14:19;1.63;;;0.90;;
8887;SDS011;4480;52.370;9.748;2022-10-16T13:16:58;1.97;;;0.80;;
8887;SDS011;4480;52.370;9.748;2022-10-16T13:19:35;1.70;;;1.10;;
8887;SDS011;4480;52.370;9.748;2022-10-16T13:22:11;2.80;;;1.10;;
8887;SDS011;4480;52.370;9.748;2022-10-16T13:24:48;3.20;;;1.57;;
8887;SDS011;4480;52.370;9.748;2022-10-16T13:27:29;3.27;;;0.87;;
8887;SDS011;4480;52.370;9.748;2022-10-16T13:30:09;5.50;;;0.90;;
8887;SDS011;4480;52.370;9.748;2022-10-16T13:32:39;2.50;;;1.10;;
8887;SDS011;4480;52.370;9.748;2022-10-16T13:35:20;1.07;;;0.60;;
8887;SDS011;4480;52.370;9.748;2022-10-16T13:37:51;1.93;;;0.67;;
8887;SDS011;4480;52.370;9.748;2022-10-16T13:40:28;1.40;;;0.70;;
8887;SDS011;4480;52.370;9.748;2022-10-16T13:42:55;1.23;;;0.60;;
8887;SDS011;4480;52.370;9.748;2022-10-16T13:45:22;1.77;;;0.93;;
8887;SDS011;4480;52.370;9.748;2022-10-16T13:48:00;0.83;;;0.70;;
8887;SDS011;4480;52.370;9.748;2022-10-16T13:50:27;2.10;;;0.97;;
8887;SDS011;4480;52.370;9.748;2022-10-16T13:53:04;1.07;;;0.80;;
8887;SDS011;4480;52.370;9.748;2022-10-16T13:55:31;2.30;;;0.87;;
8887;SDS011;4480;52.370;9.748;2022-10-16T13:58:04;1.03;;;0.60;;
8887;SDS011;4480;52.370;9.748;2022-10-16T14:00:33;0.93;;;0.70;;
8887;SDS011;4480;52.370;9.748;2022-10-16T14:03:01;2.60;;;0.80;;
8887;SDS011;4480;52.370;9.748;2022-10-16T14:05:30;3.67;;;0.93;;
8887;SDS011;4480;52.370;9.748;2022-10-16T14:07:57;2.90;;;1.03;;
8887;SDS011;4480;52.370;9.748;2022-10-16T14:10:26;2.50;;;0.90;;
8887;SDS011;4480;52.370;9.748;2022-10-16T14:12:56;1.33;;;0.93;;
8887;SDS011;4480;52.370;9.748;2022-10-16T14:15:25;0.80;;;0.57;;
8887;SDS011;4480;52.370;9.748;2022-10-16T14:17:52;5.03;;;0.80;;
8887;SDS011;4480;52.370;9.748;2022-10-16T14:20:20;0.83;;;0.63;;
8887;SDS011;4480;52.370;9.748;2022-10-16T14:22:58;1.20;;;0.93;;
8887;SDS011;4480;52.370;9.748;2022-10-16T14:25:28;1.80;;;0.90;;
8887;SDS011;4480;52.370;9.748;2022-10-16T14:27:56;1.83;;;1.23;;
8887;SDS011;4480;52.370;9.748;2022-10-16T14:30:25;1.87;;;0.93;;
8887;SDS011;4480;52.370;9.748;2022-10-16T14:32:54;1.30;;;0.90;;
8887;SDS011;4480;52.370;9.748;2022-10-16T14:35:24;1.63;;;0.80;;
8887;SDS011;4480;52.370;9.748;2022-10-16T14:37:52;2.50;;;1.10;;
8887;SDS011;4480;52.370;9.748;2022-10-16T14:40:20;1.10;;;1.00;;
8887;SDS011;4480;52.370;9.748;2022-10-16T14:42:51;1.93;;;1.20;;
8887;SDS011;4480;52.370;9.748;2022-10-16T14:45:19;1.27;;;0.70;;
8887;SDS011;4480;52.370;9.748;2022-10-16T14:47:48;2.30;;;0.90;;
8887;SDS011;4480;52.370;9.748;2022-10-16T14:50:16;2.93;;;0.83;;
8887;SDS011;4480;52.370;9.748;2022-10-16T14:52:43;1.60;;;1.03;;
8887;SDS011;4480;52.370;9.748;2022-10-16T14:55:10;3.40;;;1.93;;
8887;SDS011;4480;52.370;9.748;2022-10-16T14:57:37;1.87;;;1.13;;
8887;SDS011;4480;52.370;9.748;2022-10-16T15:00:09;2.17;;;1.03;;
8887;SDS011;4480;52.370;9.748;2022-10-16T15:02:44;1.77;;;1.10;;
8887;SDS011;4480;52.370;9.748;2022-10-16T15:05:12;3.20;;;1.67;;
8887;SDS011;4480;52.370;9.748;2022-10-16T15:07:41;1.67;;;1.33;;
8887;SDS011;4480;52.370;9.748;2022-10-16T15:10:08;1.47;;;0.90;;
8887;SDS011;4480;52.370;9.748;2022-10-16T15:12:35;2.73;;;1.00;;
8887;SDS011;4480;52.370;9.748;2022-10-16T15:15:09;2.57;;;1.30;;
8887;SDS011;4480;52.370;9.748;2022-10-16T15:17:50;3.47;;;2.30;;
8887;SDS011;4480;52.370;9.748;2022-10-16T15:20:18;5.60;;;1.60;;
8887;SDS011;4480;52.370;9.748;2022-10-16T15:22:45;1.70;;;1.10;;
8887;SDS011;4480;52.370;9.748;2022-10-16T15:25:14;3.23;;;2.07;;
8887;SDS011;4480;52.370;9.748;2022-10-16T15:27:51;3.73;;;2.10;;
8887;SDS011;4480;52.370;9.748;2022-10-16T15:30:20;1.73;;;1.30;;
8887;SDS011;4480;52.370;9.748;2022-10-16T15:32:46;1.80;;;1.33;;
8887;SDS011;4480;52.370;9.748;2022-10-16T15:35:13;2.53;;;1.00;;
8887;SDS011;4480;52.370;9.748;2022-10-16T15:37:40;2.07;;;1.10;;
8887;SDS011;4480;52.370;9.748;2022-10-16T15:40:08;3.40;;;1.10;;
8887;SDS011;4480;52.370;9.748;2022-10-16T15:42:35;3.20;;;1.00;;